createdAt,value
2022-10-26T00:01:14.118Z,89.52
2022-10-26T00:03:42.818Z,89.68
2022-10-26T00:06:11.963Z,89.50
2022-10-26T00:08:39.509Z,89.63
2022-10-26T00:11:07.114Z,89.95
2022-10-26T00:13:34.502Z,89.74
2022-10-26T00:16:01.581Z,89.49
2022-10-26T00:18:28.229Z,89.32
2022-10-26T00:20:54.759Z,89.41
2022-10-26T00:23:21.482Z,89.22
2022-10-26T00:25:55.497Z,89.05
2022-10-26T00:28:22.187Z,89.25
2022-10-26T00:30:48.818Z,89.24
2022-10-26T00:33:15.513Z,89.12
2022-10-26T00:35:47.514Z,89.45
2022-10-26T00:38:14.184Z,89.27
2022-10-26T00:40:40.938Z,89.34
2022-10-26T00:43:16.622Z,89.33
2022-10-26T00:45:45.320Z,89.46
2022-10-26T00:48:23.564Z,89.30
2022-10-26T00:50:54.252Z,89.17
2022-10-26T00:53:21.238Z,89.24
2022-10-26T00:55:51.098Z,89.62
2022-10-26T00:58:19.171Z,89.48
2022-10-26T01:00:45.884Z,89.61
2022-10-26T01:03:12.630Z,89.87
2022-10-26T01:05:42.191Z,89.65
2022-10-26T01:08:10.059Z,89.79
2022-10-26T01:10:39.970Z,89.43
2022-10-26T01:13:06.705Z,89.36
2022-10-26T01:15:51.901Z,89.71
2022-10-26T01:18:48.567Z,89.58
2022-10-26T01:21:24.181Z,89.96
2022-10-26T01:24:12.043Z,89.92
2022-10-26T01:26:47.376Z,89.40
2022-10-26T01:30:01.744Z,89.94
2022-10-26T01:32:48.038Z,89.85
2022-10-26T01:35:24.328Z,89.67
2022-10-26T01:38:09.481Z,89.82
2022-10-26T01:41:00.797Z,90.17
2022-10-26T01:43:32.019Z,89.83
2022-10-26T01:45:59.162Z,89.85
2022-10-26T01:48:27.722Z,90.15
2022-10-26T01:50:59.519Z,90.42
2022-10-26T01:53:28.677Z,90.55
2022-10-26T01:55:56.582Z,90.38
2022-10-26T01:58:57.003Z,90.24
2022-10-26T02:01:44.368Z,90.58
2022-10-26T02:04:26.191Z,90.05
2022-10-26T02:07:07.293Z,89.87
2022-10-26T02:09:52.498Z,89.80
2022-10-26T02:12:58.187Z,89.83
2022-10-26T02:15:33.742Z,89.82
2022-10-26T02:18:13.999Z,89.81
2022-10-26T02:20:46.553Z,89.60
2022-10-26T02:23:15.562Z,89.59
2022-10-26T02:25:50.378Z,89.78
2022-10-26T02:28:26.057Z,89.04
2022-10-26T02:30:56.584Z,89.39
2022-10-26T02:33:26.625Z,89.63
2022-10-26T02:35:54.895Z,89.48
2022-10-26T02:38:23.109Z,89.50
2022-10-26T02:40:51.875Z,89.28
2022-10-26T02:43:23.217Z,89.29
2022-10-26T02:45:54.342Z,89.08
2022-10-26T02:48:22.470Z,89.69
2022-10-26T02:51:04.022Z,89.51
2022-10-26T02:53:43.169Z,89.27
2022-10-26T02:56:21.035Z,89.04
2022-10-26T02:58:53.932Z,89.76
2022-10-26T03:01:21.325Z,89.35
2022-10-26T03:03:48.289Z,89.88
2022-10-26T03:06:24.605Z,89.66
2022-10-26T03:08:51.282Z,89.67
2022-10-26T03:11:18.270Z,89.09
2022-10-26T03:13:45.226Z,89.45
2022-10-26T03:16:12.020Z,89.88
2022-10-26T03:18:38.663Z,90.15
2022-10-26T03:21:05.437Z,89.93
2022-10-26T03:23:32.037Z,89.50
2022-10-26T03:25:59.570Z,90.02
2022-10-26T03:28:26.223Z,89.98
2022-10-26T03:30:52.811Z,89.97
2022-10-26T03:33:19.473Z,90.42
2022-10-26T03:35:48.190Z,89.71
2022-10-26T03:38:15.996Z,89.66
2022-10-26T03:40:42.956Z,89.86
2022-10-26T03:43:09.501Z,90.46
2022-10-26T03:45:36.184Z,90.10
2022-10-26T03:48:02.783Z,89.79
2022-10-26T03:50:31.484Z,89.49
2022-10-26T03:52:58.077Z,89.96
2022-10-26T03:55:24.698Z,89.93
2022-10-26T03:57:51.293Z,89.77
2022-10-26T04:00:18.796Z,90.08
2022-10-26T04:02:53.377Z,89.99
2022-10-26T04:05:23.821Z,90.08
2022-10-26T04:08:02.237Z,89.93
2022-10-26T04:10:32.221Z,89.69
2022-10-26T04:13:00.290Z,90.20
2022-10-26T04:15:28.008Z,90.19
2022-10-26T04:18:02.332Z,90.05
2022-10-26T04:20:32.994Z,89.72
2022-10-26T04:23:01.834Z,89.48
2022-10-26T04:25:32.704Z,89.98
2022-10-26T04:28:07.431Z,90.14
2022-10-26T04:30:34.794Z,89.72
2022-10-26T04:33:01.636Z,89.89
2022-10-26T04:35:30.771Z,89.62
2022-10-26T04:38:01.876Z,89.88
2022-10-26T04:40:32.055Z,89.86
2022-10-26T04:43:01.640Z,89.84
2022-10-26T04:45:30.848Z,90.47
2022-10-26T04:48:11.097Z,90.51
2022-10-26T04:50:38.911Z,89.61
2022-10-26T04:53:09.956Z,90.27
2022-10-26T04:55:39.252Z,90.81
2022-10-26T04:58:06.098Z,90.42
2022-10-26T05:00:36.931Z,90.56
2022-10-26T05:03:06.110Z,90.30
2022-10-26T05:05:34.994Z,90.54
2022-10-26T05:08:01.663Z,90.33
2022-10-26T05:10:28.629Z,91.19
2022-10-26T05:12:59.332Z,90.88
2022-10-26T05:15:26.938Z,90.67
2022-10-26T05:18:02.894Z,91.41
2022-10-26T05:20:31.339Z,91.29
2022-10-26T05:23:01.096Z,91.04
2022-10-26T05:25:31.208Z,91.21
2022-10-26T05:28:06.156Z,90.74
2022-10-26T05:30:32.802Z,90.88
2022-10-26T05:33:03.414Z,90.91
2022-10-26T05:35:30.897Z,91.21
2022-10-26T05:38:00.383Z,91.16
2022-10-26T05:40:27.777Z,91.75
2022-10-26T05:42:59.970Z,91.63
2022-10-26T05:45:26.545Z,91.67
2022-10-26T05:47:54.605Z,91.59
2022-10-26T05:50:23.737Z,91.44
2022-10-26T05:52:51.117Z,91.51
2022-10-26T05:55:20.839Z,91.89
2022-10-26T05:57:48.139Z,91.59
2022-10-26T06:00:21.281Z,91.62
2022-10-26T06:03:05.737Z,91.75
2022-10-26T06:05:40.435Z,92.11
2022-10-26T06:08:11.138Z,91.94
2022-10-26T06:10:39.359Z,92.09
2022-10-26T06:13:06.222Z,91.96
2022-10-26T06:15:42.257Z,92.23
2022-10-26T06:18:25.325Z,91.51
2022-10-26T06:21:19.611Z,91.88
2022-10-26T06:23:55.905Z,92.35
2022-10-26T06:26:35.388Z,91.92
2022-10-26T06:29:07.906Z,91.78
2022-10-26T06:31:34.471Z,91.96
2022-10-26T06:34:01.340Z,92.21
2022-10-26T06:36:29.141Z,91.58
2022-10-26T06:39:11.829Z,91.69
2022-10-26T06:41:38.817Z,92.18
2022-10-26T06:44:06.315Z,92.47
2022-10-26T06:46:46.184Z,92.18
2022-10-26T06:49:30.272Z,91.98
2022-10-26T06:52:11.874Z,92.15
2022-10-26T06:54:54.659Z,92.22
2022-10-26T06:57:23.714Z,91.71
2022-10-26T06:59:57.262Z,92.22
2022-10-26T07:02:24.465Z,92.29
2022-10-26T07:04:51.245Z,91.68
2022-10-26T07:07:30.684Z,91.86
2022-10-26T07:10:01.131Z,92.50
2022-10-26T07:12:32.116Z,92.36
2022-10-26T07:15:00.825Z,91.57
2022-10-26T07:17:30.662Z,92.14
2022-10-26T07:19:57.471Z,92.49
2022-10-26T07:22:25.420Z,92.14
2022-10-26T07:24:52.348Z,92.20
2022-10-26T07:27:24.002Z,92.31
2022-10-26T07:29:50.574Z,91.97
2022-10-26T07:32:17.213Z,92.14
2022-10-26T07:34:43.787Z,92.01
2022-10-26T07:37:10.333Z,91.54
2022-10-26T07:39:36.886Z,91.65
2022-10-26T07:42:03.508Z,91.94
2022-10-26T07:44:30.163Z,91.83
2022-10-26T07:46:57.307Z,91.68
2022-10-26T07:49:27.703Z,91.66
2022-10-26T07:51:54.821Z,91.07
2022-10-26T07:54:21.370Z,91.81
2022-10-26T07:56:54.373Z,91.20
2022-10-26T07:59:20.974Z,91.84
2022-10-26T08:01:47.649Z,91.64
2022-10-26T08:04:15.285Z,91.43
2022-10-26T08:06:41.921Z,91.59
2022-10-26T08:09:08.519Z,91.42
2022-10-26T08:11:37.137Z,91.56
2022-10-26T08:14:04.315Z,91.61
2022-10-26T08:16:31.436Z,91.44
2022-10-26T08:18:58.022Z,91.42
2022-10-26T08:21:39.459Z,91.81
2022-10-26T08:24:07.273Z,91.74
2022-10-26T08:26:33.977Z,91.40
2022-10-26T08:29:00.559Z,91.57
2022-10-26T08:31:27.166Z,91.37
2022-10-26T08:33:53.706Z,91.22
2022-10-26T08:36:26.732Z,90.89
2022-10-26T08:38:53.514Z,91.07
2022-10-26T08:41:31.573Z,91.58
2022-10-26T08:44:05.925Z,91.33
2022-10-26T08:46:42.549Z,91.08
2022-10-26T08:49:15.905Z,91.35
2022-10-26T08:51:43.426Z,91.19
2022-10-26T08:54:17.271Z,90.93
2022-10-26T08:56:53.831Z,91.16
2022-10-26T08:59:49.147Z,90.95
2022-10-26T09:02:18.061Z,91.13
2022-10-26T09:04:45.263Z,91.19
2022-10-26T09:07:48.926Z,91.59
2022-10-26T09:10:39.277Z,90.98
2022-10-26T09:13:19.095Z,91.14
2022-10-26T09:15:53.679Z,90.57
2022-10-26T09:18:29.562Z,90.49
2022-10-26T09:21:38.416Z,90.41
2022-10-26T09:24:14.940Z,91.10
2022-10-26T09:27:02.699Z,90.73
2022-10-26T09:29:36.847Z,90.07
2022-10-26T09:32:04.916Z,90.66
2022-10-26T09:34:45.081Z,90.20
2022-10-26T09:37:28.214Z,90.28
2022-10-26T09:40:13.297Z,90.46
2022-10-26T09:42:43.377Z,90.27
2022-10-26T09:45:18.691Z,90.36
2022-10-26T09:47:52.821Z,90.33
2022-10-26T09:50:25.064Z,90.10
2022-10-26T09:52:51.952Z,89.98
2022-10-26T09:55:20.877Z,90.00
2022-10-26T09:57:54.341Z,90.22
2022-10-26T10:00:25.684Z,89.42
2022-10-26T10:02:54.766Z,89.60
2022-10-26T10:08:23.638Z,88.65
2022-10-26T10:11:13.432Z,89.47
2022-10-26T10:13:45.009Z,89.36
2022-10-26T10:16:22.053Z,88.90
2022-10-26T10:19:00.025Z,89.39
2022-10-26T10:21:48.563Z,88.74
2022-10-26T10:24:30.298Z,88.55
2022-10-26T10:26:58.188Z,88.90
2022-10-26T10:29:50.880Z,88.45
2022-10-26T10:32:23.139Z,88.83
2022-10-26T10:34:51.775Z,88.42
2022-10-26T10:37:39.631Z,88.32
2022-10-26T10:40:19.231Z,88.18
2022-10-26T10:42:47.867Z,88.20
2022-10-26T10:45:22.315Z,88.54
2022-10-26T10:48:22.790Z,88.03
2022-10-26T10:51:15.517Z,87.81
2022-10-26T10:53:41.995Z,87.91
2022-10-26T10:56:32.694Z,88.00
2022-10-26T10:59:16.717Z,88.37
2022-10-26T11:02:05.437Z,87.57
2022-10-26T11:04:42.122Z,88.45
2022-10-26T11:07:11.292Z,88.33
2022-10-26T11:09:41.911Z,88.30
2022-10-26T11:12:41.383Z,88.06
2022-10-26T11:15:14.393Z,88.14
2022-10-26T11:18:09.582Z,87.84
2022-10-26T11:20:42.747Z,87.80
2022-10-26T11:23:20.956Z,88.01
2022-10-26T11:25:56.266Z,87.93
2022-10-26T11:28:50.207Z,87.51
2022-10-26T11:31:25.924Z,87.21
2022-10-26T11:34:31.817Z,87.53
2022-10-26T11:37:19.518Z,87.53
2022-10-26T11:40:01.221Z,87.59
2022-10-26T11:42:32.022Z,87.08
2022-10-26T11:45:17.296Z,86.65
2022-10-26T11:47:54.099Z,87.09
2022-10-26T11:50:29.676Z,86.64
2022-10-26T11:53:18.718Z,87.10
2022-10-26T11:55:52.735Z,86.37
2022-10-26T11:58:25.704Z,86.75
2022-10-26T12:00:56.391Z,85.83
2022-10-26T12:03:30.336Z,86.17
2022-10-26T12:05:57.033Z,85.98
2022-10-26T12:08:28.616Z,86.47
2022-10-26T12:11:19.197Z,86.01
2022-10-26T12:13:52.743Z,86.45
2022-10-26T12:16:41.187Z,85.69
2022-10-26T12:19:30.496Z,86.54
2022-10-26T12:21:57.715Z,86.24
2022-10-26T12:24:24.201Z,85.75
2022-10-26T12:26:56.793Z,85.80
2022-10-26T12:29:30.938Z,86.27
2022-10-26T12:31:58.445Z,86.14
2022-10-26T12:34:46.988Z,85.81
2022-10-26T12:37:37.040Z,85.66
2022-10-26T12:40:35.087Z,85.51
2022-10-26T12:43:13.678Z,85.55
2022-10-26T12:46:04.076Z,86.32
2022-10-26T12:48:40.758Z,86.14
2022-10-26T12:51:22.711Z,85.69
2022-10-26T12:53:58.502Z,85.33
2022-10-26T12:56:36.973Z,85.39
2022-10-26T12:59:20.819Z,85.74
2022-10-26T13:02:08.153Z,86.02
2022-10-26T13:04:58.649Z,85.61
2022-10-26T13:07:30.304Z,85.33
2022-10-26T13:10:01.540Z,85.62
2022-10-26T13:12:38.412Z,85.37
2022-10-26T13:15:18.271Z,85.28
2022-10-26T13:17:55.374Z,85.63
2022-10-26T13:20:24.882Z,85.49
2022-10-26T13:22:52.275Z,85.51
2022-10-26T13:25:26.355Z,86.07
2022-10-26T13:28:31.184Z,85.54
2022-10-26T13:31:00.957Z,85.88
2022-10-26T13:33:37.054Z,85.59
2022-10-26T13:36:31.820Z,85.74
2022-10-26T13:39:04.375Z,86.18
2022-10-26T13:41:35.042Z,86.16
2022-10-26T13:44:16.652Z,86.31
2022-10-26T13:46:57.973Z,86.00
2022-10-26T13:49:35.199Z,86.22
2022-10-26T13:52:17.099Z,86.00
2022-10-26T13:54:51.545Z,86.05
2022-10-26T13:57:32.721Z,86.41
2022-10-26T14:00:07.869Z,86.02
2022-10-26T14:02:34.511Z,85.97
2022-10-26T14:05:04.612Z,86.11
2022-10-26T14:10:40.648Z,86.41
2022-10-26T14:13:09.736Z,86.01
2022-10-26T14:15:42.964Z,86.29
2022-10-26T14:18:22.785Z,86.57
2022-10-26T14:21:07.751Z,86.57
2022-10-26T14:24:06.479Z,86.65
2022-10-26T14:26:48.140Z,85.78
2022-10-26T14:29:27.132Z,86.57
2022-10-26T14:31:55.245Z,86.39
2022-10-26T14:34:24.989Z,86.34
2022-10-26T14:37:08.011Z,86.44
2022-10-26T14:39:41.369Z,86.42
2022-10-26T14:42:29.531Z,86.48
2022-10-26T14:45:02.335Z,86.68
2022-10-26T14:47:31.978Z,86.68
2022-10-26T14:50:04.435Z,86.12
2022-10-26T14:52:34.612Z,86.02
2022-10-26T14:55:04.069Z,86.29
2022-10-26T14:57:37.837Z,86.86
2022-10-26T15:00:17.639Z,86.66
2022-10-26T15:02:47.217Z,86.44
2022-10-26T15:05:34.834Z,86.75
2022-10-26T15:08:03.290Z,86.28
2022-10-26T15:10:38.712Z,86.75
2022-10-26T15:13:30.967Z,86.06
2022-10-26T15:16:19.358Z,86.71
2022-10-26T15:18:48.742Z,86.01
2022-10-26T15:21:36.845Z,86.63
2022-10-26T15:24:13.266Z,86.47
2022-10-26T15:26:43.510Z,85.99
2022-10-26T15:29:36.149Z,86.43
2022-10-26T15:32:18.626Z,86.68
2022-10-26T15:35:11.367Z,86.23
2022-10-26T15:37:47.743Z,86.17
2022-10-26T15:40:21.317Z,86.45
2022-10-26T15:42:53.229Z,86.17
2022-10-26T15:45:21.771Z,85.98
2022-10-26T15:47:52.088Z,86.35
2022-10-26T15:50:24.357Z,86.31
2022-10-26T15:52:57.779Z,85.97
2022-10-26T15:55:24.336Z,86.38
2022-10-26T15:57:51.438Z,86.40
2022-10-26T16:00:18.512Z,86.11
2022-10-26T16:02:46.226Z,86.29
2022-10-26T16:05:16.247Z,85.84
2022-10-26T16:07:44.957Z,86.29
2022-10-26T16:10:25.394Z,86.15
2022-10-26T16:12:52.468Z,86.08
2022-10-26T16:15:21.566Z,86.09
2022-10-26T16:17:49.335Z,86.83
2022-10-26T16:20:22.924Z,85.87
2022-10-26T16:22:51.260Z,86.22
2022-10-26T16:25:21.207Z,86.47
2022-10-26T16:27:49.589Z,86.44
2022-10-26T16:30:17.209Z,86.11
2022-10-26T16:32:43.862Z,86.52
2022-10-26T16:35:12.076Z,86.19
2022-10-26T16:37:39.079Z,86.43
2022-10-26T16:40:07.062Z,86.10
2022-10-26T16:42:33.868Z,85.87
2022-10-26T16:45:02.821Z,86.13
2022-10-26T16:47:35.540Z,86.48
2022-10-26T16:50:03.830Z,86.10
2022-10-26T16:52:30.408Z,86.20
2022-10-26T16:54:56.981Z,86.27
2022-10-26T16:57:23.536Z,85.99
2022-10-26T16:59:50.111Z,86.27
2022-10-26T17:02:16.923Z,85.99
2022-10-26T17:04:45.727Z,86.18
2022-10-26T17:07:12.741Z,86.64
2022-10-26T17:09:39.313Z,86.63
2022-10-26T17:12:06.256Z,86.43
2022-10-26T17:14:32.937Z,86.35
2022-10-26T17:16:59.834Z,86.03
2022-10-26T17:19:26.577Z,85.80
2022-10-26T17:21:53.212Z,86.01
2022-10-26T17:24:20.130Z,85.94
2022-10-26T17:26:47.943Z,86.07
2022-10-26T17:29:14.774Z,86.41
2022-10-26T17:31:41.626Z,85.83
2022-10-26T17:34:08.358Z,86.00
2022-10-26T17:36:35.144Z,85.96
2022-10-26T17:39:01.861Z,86.40
2022-10-26T17:41:28.813Z,86.24
2022-10-26T17:43:55.415Z,86.13
2022-10-26T17:46:24.901Z,86.36
2022-10-26T17:48:56.285Z,86.31
2022-10-26T17:51:24.243Z,85.97
2022-10-26T17:53:51.629Z,86.11
2022-10-26T17:56:23.845Z,85.91
2022-10-26T17:59:01.659Z,86.15
2022-10-26T18:01:29.476Z,86.52
2022-10-26T18:03:56.214Z,86.08
2022-10-26T18:06:23.612Z,85.88
2022-10-26T18:08:50.716Z,86.35
2022-10-26T18:11:25.386Z,85.74
2022-10-26T18:13:54.502Z,86.05
2022-10-26T18:16:22.569Z,86.13
2022-10-26T18:18:53.785Z,85.91
2022-10-26T18:21:46.582Z,86.30
2022-10-26T18:24:13.178Z,85.96
2022-10-26T18:26:39.734Z,85.37
2022-10-26T18:29:17.938Z,85.96
2022-10-26T18:31:45.362Z,85.94
2022-10-26T18:34:11.957Z,86.14
2022-10-26T18:36:40.847Z,85.54
2022-10-26T18:39:07.454Z,85.71
2022-10-26T18:41:36.081Z,85.65
2022-10-26T18:44:05.646Z,85.97
2022-10-26T18:46:39.414Z,86.13
2022-10-26T18:49:06.387Z,85.72
2022-10-26T18:51:34.677Z,85.51
2022-10-26T18:54:01.897Z,85.86
2022-10-26T18:56:28.784Z,86.00
2022-10-26T18:58:58.810Z,85.44
2022-10-26T19:01:27.981Z,86.00
2022-10-26T19:03:56.977Z,85.75
2022-10-26T19:06:26.505Z,85.78
2022-10-26T19:08:53.903Z,85.96
2022-10-26T19:11:22.137Z,85.76
2022-10-26T19:13:50.275Z,85.48
2022-10-26T19:16:33.580Z,85.80
2022-10-26T19:19:10.562Z,84.99
2022-10-26T19:21:37.163Z,85.68
2022-10-26T19:24:03.845Z,85.27
2022-10-26T19:26:36.814Z,85.41
2022-10-26T19:29:07.208Z,85.43
2022-10-26T19:31:38.359Z,85.79
2022-10-26T19:34:06.120Z,85.72
2022-10-26T19:36:33.294Z,85.70
2022-10-26T19:39:00.267Z,85.61
2022-10-26T19:41:28.252Z,85.64
2022-10-26T19:43:56.175Z,85.55
2022-10-26T19:46:25.997Z,85.02
2022-10-26T19:48:57.736Z,85.18
2022-10-26T19:51:25.920Z,85.10
2022-10-26T19:53:52.754Z,85.66
2022-10-26T19:56:20.589Z,85.04
2022-10-26T19:58:48.128Z,85.72
2022-10-26T20:01:15.818Z,85.15
2022-10-26T20:03:43.223Z,85.52
2022-10-26T20:06:14.097Z,85.79
2022-10-26T20:08:44.089Z,85.81
2022-10-26T20:11:14.794Z,85.32
2022-10-26T20:13:43.374Z,85.29
2022-10-26T20:16:10.633Z,85.37
2022-10-26T20:18:37.491Z,85.44
2022-10-26T20:21:21.994Z,85.40
2022-10-26T20:23:48.863Z,85.53
2022-10-26T20:26:18.982Z,85.68
2022-10-26T20:28:52.933Z,85.79
2022-10-26T20:31:19.949Z,85.43
2022-10-26T20:33:50.229Z,85.31
2022-10-26T20:36:16.813Z,85.88
2022-10-26T20:38:43.738Z,85.47
2022-10-26T20:41:14.616Z,85.53
2022-10-26T20:43:41.869Z,85.57
2022-10-26T20:46:11.544Z,85.69
2022-10-26T20:48:41.501Z,85.73
2022-10-26T20:51:16.203Z,86.01
2022-10-26T20:53:50.413Z,86.05
2022-10-26T20:56:25.630Z,85.50
2022-10-26T20:59:01.198Z,85.38
2022-10-26T21:01:35.263Z,85.42
2022-10-26T21:04:04.502Z,85.73
2022-10-26T21:06:39.792Z,85.33
2022-10-26T21:09:07.261Z,85.86
2022-10-26T21:11:33.906Z,85.54
2022-10-26T21:14:00.992Z,85.42
2022-10-26T21:16:27.605Z,85.67
2022-10-26T21:18:54.414Z,85.84
2022-10-26T21:21:20.959Z,85.86
2022-10-26T21:23:48.174Z,86.23
2022-10-26T21:26:14.790Z,85.79
2022-10-26T21:28:46.996Z,85.69
2022-10-26T21:31:16.960Z,85.98
2022-10-26T21:33:45.506Z,85.61
2022-10-26T21:36:12.880Z,85.63
2022-10-26T21:38:41.355Z,85.77
2022-10-26T21:41:15.986Z,86.02
2022-10-26T21:43:46.071Z,86.36
2022-10-26T21:46:13.587Z,86.03
2022-10-26T21:48:43.422Z,86.41
2022-10-26T21:51:18.576Z,86.59
2022-10-26T21:53:45.302Z,86.78
2022-10-26T21:56:14.947Z,86.10
2022-10-26T21:58:44.409Z,85.93
2022-10-26T22:01:13.927Z,86.64
2022-10-26T22:03:44.531Z,86.17
2022-10-26T22:06:15.676Z,86.68
2022-10-26T22:08:42.940Z,86.19
2022-10-26T22:11:15.384Z,86.40
2022-10-26T22:13:43.343Z,86.52
2022-10-26T22:16:12.760Z,86.41
2022-10-26T22:18:42.128Z,85.97
2022-10-26T22:21:09.173Z,86.10
2022-10-26T22:23:38.623Z,86.62
2022-10-26T22:26:07.663Z,86.33
2022-10-26T22:28:39.925Z,86.31
2022-10-26T22:31:12.904Z,86.62
2022-10-26T22:33:39.734Z,86.10
2022-10-26T22:36:12.409Z,86.24
2022-10-26T22:38:40.036Z,86.47
2022-10-26T22:41:07.297Z,85.81
2022-10-26T22:43:33.930Z,86.71
2022-10-26T22:46:12.353Z,86.38
2022-10-26T22:48:41.169Z,86.34
2022-10-26T22:51:09.894Z,86.10
2022-10-26T22:53:37.252Z,86.00
2022-10-26T22:56:05.816Z,86.07
2022-10-26T22:58:32.697Z,86.18
2022-10-26T23:01:07.955Z,86.13
2022-10-26T23:03:35.707Z,86.35
2022-10-26T23:06:03.389Z,86.31
2022-10-26T23:08:30.371Z,86.45
2022-10-26T23:11:01.361Z,86.88
2022-10-26T23:13:28.797Z,86.81
2022-10-26T23:15:56.057Z,86.96
2022-10-26T23:18:22.893Z,86.60
2022-10-26T23:20:50.542Z,86.77
2022-10-26T23:23:18.229Z,86.42
2022-10-26T23:25:44.789Z,86.88
2022-10-26T23:28:11.552Z,87.01
2022-10-26T23:30:38.114Z,86.65
2022-10-26T23:33:04.675Z,86.86
2022-10-26T23:35:31.519Z,86.90
2022-10-26T23:37:59.209Z,87.57
2022-10-26T23:40:26.601Z,87.12
2022-10-26T23:42:53.730Z,87.41
2022-10-26T23:45:20.530Z,87.23
2022-10-26T23:47:47.152Z,87.60
2022-10-26T23:50:13.912Z,87.29
2022-10-26T23:52:40.545Z,87.96
2022-10-26T23:55:07.394Z,87.24
2022-10-26T23:57:34.021Z,87.62
